Time;durP1;ratioP1;P1;durP2;ratioP2;P2;SDS_P1;SDS_P2;PMS_P1;PMS_P2;Temp;Humidity;BMP_temperature;BMP_pressure;BME280_temperature;BME280_humidity;BME280_pressure;Samples;Min_cycle;Max_cycle;Signal;HPM_P1;HPM_P2
2022/08/02 00:02:19;;;;;;;0.10;0.10;;;;;;;22.68;55.67;101523.56;5146091;27;20043;-38
2022/08/02 00:04:45;;;;;;;0.10;0.10;;;;;;;22.67;55.74;101522.72;5140800;27;20191;-38
2022/08/02 00:07:11;;;;;;;0.10;0.10;;;;;;;22.68;55.66;101524.38;5138940;27;20751;-38
2022/08/02 00:09:37;;;;;;;0.10;0.10;;;;;;;22.69;55.70;101516.88;5135647;27;20051;-38
2022/08/02 00:12:03;;;;;;;0.10;0.10;;;;;;;22.68;55.68;101513.28;5139190;27;20039;-38
2022/08/02 00:14:29;;;;;;;0.10;0.10;;;;;;;22.68;55.69;101518.00;5138039;27;20070;-38
2022/08/02 00:16:55;;;;;;;0.10;0.10;;;;;;;22.68;55.69;101518.00;5142830;27;20050;-38
2022/08/02 00:19:20;;;;;;;0.10;0.10;;;;;;;22.68;55.58;101515.22;5119551;27;20175;-38
2022/08/02 00:21:46;;;;;;;0.10;0.10;;;;;;;22.68;55.63;101515.22;5138068;27;20051;-38
2022/08/02 00:24:12;;;;;;;0.10;0.10;;;;;;;22.68;55.65;101512.44;5125196;27;20049;-37
2022/08/02 00:26:55;;;;;;;0.10;0.10;;;;;;;22.67;55.66;101514.41;5136073;27;20382;-37
2022/08/02 00:29:21;;;;;;;0.10;0.10;;;;;;;22.67;55.57;101514.41;5135340;27;20495;-39
2022/08/02 00:31:46;;;;;;;0.10;0.10;;;;;;;22.68;55.61;101509.66;5143335;27;20422;-38
2022/08/02 00:34:13;;;;;;;0.10;0.10;;;;;;;22.68;55.68;101501.34;5141947;27;20041;-37
2022/08/02 00:36:56;;;;;;;0.10;0.10;;;;;;;22.67;55.74;101499.69;5138888;27;20046;-39
2022/08/02 00:39:22;;;;;;;0.10;0.10;;;;;;;22.67;55.66;101503.28;5135334;27;20412;-37
2022/08/02 00:42:01;;;;;;;0.10;0.10;;;;;;;22.68;55.59;101495.78;5138637;27;20054;-39
2022/08/02 00:44:27;;;;;;;0.10;0.10;;;;;;;22.67;55.68;101485.81;5138965;27;20477;-39
2022/08/02 00:46:52;;;;;;;0.10;0.10;;;;;;;22.68;55.53;101498.56;5136475;27;20053;-39
2022/08/02 00:49:18;;;;;;;0.10;0.10;;;;;;;22.68;55.66;101495.78;5117664;28;20518;-39
2022/08/02 00:51:46;;;;;;;0.10;0.10;;;;;;;22.67;55.61;101492.19;5139774;27;20062;-38
2022/08/02 00:54:13;;;;;;;0.10;0.10;;;;;;;22.68;55.57;101498.56;5139892;27;20462;-39
2022/08/02 00:56:39;;;;;;;0.10;0.10;;;;;;;22.68;55.66;101498.56;5140319;27;20078;-38
2022/08/02 00:59:15;;;;;;;0.10;0.10;;;;;;;22.67;55.63;101494.97;5135004;27;20491;-37
2022/08/02 01:01:41;;;;;;;0.10;0.10;;;;;;;22.66;55.47;101490.50;5135631;27;20044;-37
2022/08/02 01:04:24;;;;;;;0.10;0.10;;;;;;;22.68;55.57;101493.84;5139748;27;20480;-39
2022/08/02 01:06:58;;;;;;;0.10;0.10;;;;;;;22.68;55.51;101504.13;5135440;27;20169;-39
2022/08/02 01:09:24;;;;;;;0.10;0.10;;;;;;;22.68;55.46;101501.34;5134649;27;20070;-37
2022/08/02 01:11:50;;;;;;;0.10;0.10;;;;;;;22.67;55.76;101517.19;5138328;27;20081;-39
2022/08/02 01:14:16;;;;;;;0.10;0.10;;;;;;;22.69;55.61;101503.81;5132806;27;20043;-37
2022/08/02 01:16:47;;;;;;;0.10;0.10;;;;;;;22.67;55.54;101503.28;5133183;27;20043;-38
2022/08/02 01:19:42;;;;;;;0.10;0.10;;;;;;;22.66;55.59;101496.06;5119810;27;20043;-38
2022/08/02 01:22:41;;;;;;;0.10;0.10;;;;;;;22.67;55.65;101496.91;5138170;27;20066;-38
2022/08/02 01:26:06;;;;;;;0.10;0.10;;;;;;;22.67;55.62;101480.25;5129988;27;20043;-37
2022/08/02 01:28:37;;;;;;;0.10;0.10;;;;;;;22.67;55.58;101481.09;5109485;27;20074;-37
2022/08/02 01:31:12;;;;;;;0.10;0.10;;;;;;;22.67;55.43;101480.25;5120985;27;20085;-38
2022/08/02 01:33:43;;;;;;;0.10;0.10;;;;;;;22.68;55.62;101481.91;5121764;28;20073;-37
2022/08/02 01:36:11;;;;;;;0.10;0.10;;;;;;;22.67;55.62;101469.97;5118606;27;20067;-37
2022/08/02 01:38:42;;;;;;;0.10;0.10;;;;;;;22.67;55.44;101481.09;5119386;27;20559;-37
2022/08/02 01:41:09;;;;;;;0.10;0.10;;;;;;;22.67;55.65;101481.09;5136247;27;20169;-36
2022/08/02 01:43:35;;;;;;;0.10;0.10;;;;;;;22.67;55.65;101478.31;5119686;27;20487;-38
2022/08/02 01:46:02;;;;;;;0.10;0.10;;;;;;;22.68;55.66;101487.47;5131891;27;20134;-38
2022/08/02 01:48:29;;;;;;;0.10;0.10;;;;;;;22.67;55.40;101474.69;5134806;27;20896;-36
2022/08/02 01:50:56;;;;;;;0.10;0.10;;;;;;;22.67;55.69;101475.53;5134344;27;20077;-39
2022/08/02 01:53:24;;;;;;;0.10;0.10;;;;;;;22.68;55.59;101470.81;5114282;27;20062;-37
2022/08/02 01:55:52;;;;;;;0.10;0.10;;;;;;;22.67;55.53;101471.94;5137439;27;20123;-38
2022/08/02 01:58:26;;;;;;;0.10;0.10;;;;;;;22.67;55.66;101472.75;5123291;27;20082;-36
2022/08/02 02:00:55;;;;;;;0.10;0.10;;;;;;;22.68;55.54;101468.03;5114512;27;20043;-35
2022/08/02 02:03:23;;;;;;;0.10;0.10;;;;;;;22.67;55.51;101472.75;5137802;27;20045;-37
2022/08/02 02:05:50;;;;;;;0.10;0.10;;;;;;;22.67;55.62;101469.16;5135387;27;20478;-38
2022/08/02 02:08:20;;;;;;;0.10;0.10;;;;;;;22.67;55.47;101467.19;5138416;27;20191;-38
2022/08/02 02:10:54;;;;;;;0.10;0.10;;;;;;;22.67;55.54;101469.97;5103444;27;20043;-37
2022/08/02 02:13:20;;;;;;;0.10;0.10;;;;;;;22.67;55.55;101471.94;5137972;27;20134;-38
2022/08/02 02:16:02;;;;;;;0.10;0.10;;;;;;;22.66;55.52;101468.28;5119334;27;20070;-39
2022/08/02 02:18:29;;;;;;;0.10;0.10;;;;;;;22.66;55.55;101462.75;5115395;27;20095;-38
2022/08/02 02:20:56;;;;;;;0.10;0.10;;;;;;;22.66;55.45;101454.41;5133662;27;20123;-37
2022/08/02 02:23:22;;;;;;;0.10;0.10;;;;;;;22.66;55.59;101468.28;5131785;27;20126;-38
2022/08/02 02:25:52;;;;;;;0.10;0.10;;;;;;;22.66;55.62;101468.28;5139407;27;20047;-37
2022/08/02 02:28:27;;;;;;;0.10;0.10;;;;;;;22.67;55.55;101466.38;5138034;27;20126;-37
2022/08/02 02:30:59;;;;;;;0.10;0.10;;;;;;;22.66;55.59;101465.53;5122998;27;20134;-39
2022/08/02 02:33:25;;;;;;;0.10;0.10;;;;;;;22.67;55.45;101455.28;5132096;27;20126;-39
2022/08/02 02:35:56;;;;;;;0.10;0.10;;;;;;;22.67;55.69;101461.66;5137099;27;20489;-39
2022/08/02 02:38:22;;;;;;;0.10;0.10;;;;;;;22.67;55.44;101456.09;5114309;28;20465;-37
2022/08/02 02:40:48;;;;;;;0.10;0.10;;;;;;;22.66;55.40;101453.59;5136954;27;20122;-37
2022/08/02 02:43:16;;;;;;;0.10;0.10;;;;;;;22.67;55.51;101449.72;5113164;27;21281;-37
2022/08/02 02:45:42;;;;;;;0.10;0.10;;;;;;;22.67;55.65;101442.22;5112172;27;20200;-39
2022/08/02 02:48:08;;;;;;;0.10;0.10;;;;;;;22.66;55.55;101440.53;5134336;27;20062;-37
2022/08/02 02:50:35;;;;;;;0.10;0.10;;;;;;;22.67;55.44;101446.94;5134905;27;20078;-39
2022/08/02 02:53:01;;;;;;;0.10;0.10;;;;;;;22.65;55.62;101427.78;5137503;27;20076;-37
2022/08/02 02:55:27;;;;;;;0.10;0.10;;;;;;;22.66;55.49;101437.75;5135347;27;20378;-37
2022/08/02 02:57:53;;;;;;;0.10;0.10;;;;;;;22.66;55.52;101432.19;5139292;27;20457;-37
2022/08/02 03:01:26;;;;;;;0.10;0.10;;;;;;;22.66;55.63;101428.59;5133126;27;20078;-39
2022/08/02 03:03:05;;;;;;;0.10;0.10;;;;;;;22.66;55.48;101428.59;5123541;27;20062;-39
2022/08/02 03:05:30;;;;;;;0.10;0.10;;;;;;;22.65;55.48;101425.00;5134963;27;20141;-39
2022/08/02 03:07:56;;;;;;;0.10;0.10;;;;;;;22.66;55.50;101432.19;5135014;27;20121;-39
2022/08/02 03:10:22;;;;;;;0.10;0.10;;;;;;;22.66;55.67;101434.16;5137887;27;20047;-37
2022/08/02 03:12:48;;;;;;;0.10;0.10;;;;;;;22.65;55.65;101433.34;5131685;27;20044;-37
2022/08/02 03:15:14;;;;;;;0.10;0.10;;;;;;;22.66;55.33;101432.19;5135280;27;20108;-37
2022/08/02 03:17:41;;;;;;;0.10;0.10;;;;;;;22.66;55.59;101426.66;5133837;27;20530;-37
2022/08/02 03:20:10;;;;;;;0.10;0.10;;;;;;;22.66;55.56;101431.38;5112995;28;20048;-37
2022/08/02 03:22:35;;;;;;;0.10;0.10;;;;;;;22.65;55.53;101430.56;5117486;28;20581;-39
2022/08/02 03:25:01;;;;;;;0.10;0.10;;;;;;;22.65;55.57;101427.78;5137811;27;20035;-39
2022/08/02 03:27:27;;;;;;;0.10;0.10;;;;;;;22.65;55.55;101427.78;5140721;27;20046;-39
2022/08/02 03:29:52;;;;;;;0.10;0.10;;;;;;;22.65;55.46;101419.44;5136239;27;20057;-38
2022/08/02 03:32:18;;;;;;;0.10;0.10;;;;;;;22.65;55.60;101421.41;5139085;27;20049;-38
2022/08/02 03:34:44;;;;;;;0.10;0.10;;;;;;;22.64;55.56;101423.34;5115830;27;20092;-39
2022/08/02 03:37:10;;;;;;;0.10;0.10;;;;;;;22.65;55.38;101421.41;5141487;27;20038;-37
2022/08/02 03:39:36;;;;;;;0.10;0.10;;;;;;;22.66;55.47;101420.28;5137227;27;20079;-37
2022/08/02 03:42:08;;;;;;;0.10;0.10;;;;;;;22.66;55.64;101420.28;5140404;27;20473;-37
2022/08/02 03:44:41;;;;;;;0.10;0.10;;;;;;;22.65;55.52;101415.84;5139563;27;20050;-36
2022/08/02 03:47:06;;;;;;;0.20;0.20;;;;;;;22.64;55.61;101423.34;5136857;27;20077;-39
2022/08/02 03:49:33;;;;;;;0.10;0.10;;;;;;;22.64;55.39;101423.34;5139184;27;20397;-39
2022/08/02 03:51:59;;;;;;;0.10;0.10;;;;;;;22.65;55.41;101416.69;5117206;27;20115;-37
2022/08/02 03:54:25;;;;;;;0.10;0.10;;;;;;;22.66;55.46;101417.50;5135008;27;20090;-36
2022/08/02 03:57:00;;;;;;;0.10;0.10;;;;;;;22.65;55.57;101427.78;5136397;27;20043;-38
2022/08/02 03:59:25;;;;;;;0.10;0.10;;;;;;;22.65;55.61;101425.00;5136001;27;20080;-37
2022/08/02 04:01:57;;;;;;;0.10;0.10;;;;;;;22.65;55.49;101427.78;5144418;27;20047;-38
2022/08/02 04:04:27;;;;;;;0.10;0.10;;;;;;;22.65;55.46;101419.44;5139815;27;20050;-36
2022/08/02 04:06:53;;;;;;;0.10;0.10;;;;;;;22.65;55.37;101419.44;5142876;27;20121;-37
2022/08/02 04:09:20;;;;;;;0.10;0.10;;;;;;;22.65;55.57;101424.19;5139927;27;20548;-38
2022/08/02 04:11:46;;;;;;;0.10;0.10;;;;;;;22.64;55.45;101426.13;5141875;27;20049;-39
2022/08/02 04:14:11;;;;;;;0.10;0.10;;;;;;;22.65;55.44;101430.56;5137444;27;20142;-38
2022/08/02 04:16:41;;;;;;;0.10;0.10;;;;;;;22.66;55.55;101432.19;5135723;27;20043;-39
2022/08/02 04:19:09;;;;;;;0.10;0.10;;;;;;;22.65;55.45;101427.78;5138804;27;20461;-37
2022/08/02 04:21:40;;;;;;;0.10;0.10;;;;;;;22.64;55.49;101428.91;5117779;28;20108;-38
2022/08/02 04:24:22;;;;;;;0.10;0.10;;;;;;;22.64;55.54;101428.91;5117994;27;20088;-38
2022/08/02 04:26:52;;;;;;;0.10;0.10;;;;;;;22.65;55.38;101435.28;5141558;27;20325;-39
2022/08/02 04:29:18;;;;;;;0.10;0.10;;;;;;;22.65;55.43;101438.06;5134801;27;20082;-39
2022/08/02 04:31:44;;;;;;;0.10;0.10;;;;;;;22.65;55.43;101425.00;5140518;27;20047;-38
2022/08/02 04:34:10;;;;;;;0.10;0.10;;;;;;;22.65;55.45;101430.56;5140476;27;20039;-36
2022/08/02 04:36:41;;;;;;;0.10;0.10;;;;;;;22.65;55.45;101429.72;5138307;27;20043;-37
2022/08/02 04:39:07;;;;;;;0.10;0.10;;;;;;;22.64;55.44;101425.31;5138229;27;20082;-39
2022/08/02 04:41:48;;;;;;;0.10;0.10;;;;;;;22.65;55.48;101435.28;5114896;27;20051;-38
2022/08/02 04:44:13;;;;;;;0.10;0.10;;;;;;;22.64;55.61;101440.00;5137738;27;20067;-38
2022/08/02 04:46:40;;;;;;;0.10;0.10;;;;;;;22.64;55.45;101431.69;5138753;27;20512;-37
2022/08/02 04:49:06;;;;;;;0.10;0.10;;;;;;;22.64;55.41;101430.84;5138160;27;20458;-38
2022/08/02 04:51:36;;;;;;;0.10;0.10;;;;;;;22.64;55.53;101437.22;5139707;27;20079;-37
2022/08/02 04:54:04;;;;;;;0.10;0.10;;;;;;;22.64;55.44;101433.63;5138971;27;20482;-38
2022/08/02 04:56:35;;;;;;;0.10;0.10;;;;;;;22.64;55.47;101431.69;5119191;27;20051;-38
2022/08/02 04:59:01;;;;;;;0.10;0.10;;;;;;;22.63;55.42;101438.38;5137400;27;20546;-37
2022/08/02 05:01:27;;;;;;;0.10;0.10;;;;;;;22.64;55.55;101439.19;5136193;27;20051;-37
2022/08/02 05:03:53;;;;;;;0.10;0.10;;;;;;;22.64;55.36;101437.22;5141780;27;20053;-38
2022/08/02 05:06:18;;;;;;;0.10;0.10;;;;;;;22.64;55.47;101431.69;5144650;27;20413;-36
2022/08/02 05:08:46;;;;;;;0.10;0.10;;;;;;;22.64;55.40;101440.00;5139011;27;20047;-37
2022/08/02 05:11:18;;;;;;;0.10;0.10;;;;;;;22.64;55.27;101440.00;5134675;27;20383;-38
2022/08/02 05:13:44;;;;;;;0.10;0.10;;;;;;;22.65;55.36;101441.66;5140462;27;20050;-38
2022/08/02 05:16:25;;;;;;;0.10;0.10;;;;;;;22.64;55.53;101430.84;5140052;27;20095;-39
2022/08/02 05:18:59;;;;;;;0.10;0.10;;;;;;;22.64;55.44;101436.41;5137680;27;20051;-37
2022/08/02 05:21:24;;;;;;;0.10;0.10;;;;;;;22.65;55.56;101438.06;5135762;27;20389;-38
2022/08/02 05:23:50;;;;;;;0.10;0.10;;;;;;;22.63;55.28;101438.38;5136568;27;20047;-36
2022/08/02 05:26:16;;;;;;;0.10;0.10;;;;;;;22.64;55.55;101430.84;5138270;27;20469;-37
2022/08/02 05:28:41;;;;;;;0.10;0.10;;;;;;;22.64;55.56;101436.41;5136682;27;20043;-36
2022/08/02 05:31:07;;;;;;;0.10;0.10;;;;;;;22.64;55.53;101433.63;5143149;27;20049;-38
2022/08/02 05:33:39;;;;;;;0.10;0.10;;;;;;;22.64;55.44;101436.41;5138306;27;20046;-39
2022/08/02 05:36:05;;;;;;;0.10;0.10;;;;;;;22.63;55.43;101430.03;5121319;27;21203;-37
2022/08/02 05:38:31;;;;;;;0.10;0.10;;;;;;;22.63;55.50;101432.00;5140217;27;20537;-39
2022/08/02 05:40:57;;;;;;;0.10;0.10;;;;;;;22.63;55.33;101441.13;5137178;27;20047;-37
2022/08/02 05:43:22;;;;;;;0.10;0.10;;;;;;;22.62;55.72;101436.69;5136958;27;20039;-38
2022/08/02 05:45:49;;;;;;;0.10;0.10;;;;;;;22.63;55.45;101443.91;5137841;27;20047;-40
2022/08/02 05:48:15;;;;;;;0.10;0.10;;;;;;;22.64;55.33;101444.75;5136004;27;20047;-39
2022/08/02 05:50:44;;;;;;;0.10;0.10;;;;;;;22.63;55.71;101441.13;5136113;27;20043;-37
2022/08/02 05:53:34;;;;;;;0.17;0.17;;;;;;;22.64;55.35;101437.22;5119242;27;20121;-37
2022/08/02 05:56:06;;;;;;;0.10;0.10;;;;;;;22.63;55.47;101435.59;5126429;27;20090;-39
2022/08/02 05:58:45;;;;;;;0.10;0.10;;;;;;;22.64;55.48;101439.19;5144364;27;20043;-37
2022/08/02 06:01:12;;;;;;;0.10;0.10;;;;;;;22.64;55.53;101434.47;5137665;27;20074;-38
2022/08/02 06:03:42;;;;;;;0.10;0.10;;;;;;;22.64;55.49;101439.19;5140941;27;20039;-38
2022/08/02 06:06:11;;;;;;;0.10;0.10;;;;;;;22.63;55.39;101432.81;5141573;27;20074;-37
2022/08/02 06:08:41;;;;;;;0.10;0.10;;;;;;;22.63;55.36;101438.38;5138301;27;20070;-40
2022/08/02 06:11:19;;;;;;;0.10;0.10;;;;;;;22.63;55.46;101432.81;5135205;27;20039;-40
2022/08/02 06:13:45;;;;;;;0.10;0.10;;;;;;;22.64;55.45;101436.41;5111658;27;20134;-39
2022/08/02 06:16:10;;;;;;;0.10;0.10;;;;;;;22.63;55.41;101435.59;5136981;27;20043;-40
2022/08/02 06:18:41;;;;;;;0.10;0.10;;;;;;;22.63;55.38;101438.38;5134521;27;20046;-40
2022/08/02 06:21:07;;;;;;;0.10;0.10;;;;;;;22.63;55.59;101437.53;5117453;27;20085;-39
2022/08/02 06:23:54;;;;;;;0.10;0.10;;;;;;;22.63;55.30;101435.59;5121201;27;20051;-41
2022/08/02 06:26:25;;;;;;;0.10;0.10;;;;;;;22.63;55.40;101432.00;5132780;27;20051;-37
2022/08/02 06:28:53;;;;;;;0.10;0.10;;;;;;;22.63;55.39;101432.81;5115833;27;20070;-37
2022/08/02 06:31:19;;;;;;;0.10;0.10;;;;;;;22.63;55.39;101429.22;5137402;27;20138;-39
2022/08/02 06:33:45;;;;;;;0.10;0.10;;;;;;;22.62;55.38;101433.91;5119623;27;20039;-39
2022/08/02 06:36:19;;;;;;;0.10;0.10;;;;;;;22.62;55.38;101428.34;5137036;27;20081;-36
2022/08/02 06:39:10;;;;;;;0.10;0.10;;;;;;;22.63;55.46;101437.53;5116543;27;20561;-39
2022/08/02 06:41:41;;;;;;;0.10;0.10;;;;;;;22.63;55.27;101432.00;5121243;27;20074;-41
2022/08/02 06:44:07;;;;;;;0.10;0.10;;;;;;;22.63;55.38;101435.59;5117090;27;20141;-39
2022/08/02 06:46:53;;;;;;;0.10;0.10;;;;;;;22.63;55.43;101434.75;5110723;27;20043;-38
2022/08/02 06:49:39;;;;;;;0.10;0.10;;;;;;;22.63;55.54;101437.53;5136709;27;20039;-39
2022/08/02 06:52:20;;;;;;;0.10;0.10;;;;;;;22.62;55.23;101433.91;5121420;27;20047;-40
2022/08/02 06:54:52;;;;;;;0.10;0.10;;;;;;;22.62;55.40;101433.91;5134169;27;20047;-39
2022/08/02 06:57:17;;;;;;;0.10;0.10;;;;;;;22.62;55.47;101431.13;5134266;27;20042;-39
2022/08/02 06:59:43;;;;;;;0.10;0.10;;;;;;;22.62;55.37;101422.81;5137877;27;20043;-40
2022/08/02 07:02:10;;;;;;;0.20;0.20;;;;;;;22.63;55.32;101432.81;5138861;27;20095;-41
2022/08/02 07:04:36;;;;;;;0.10;0.10;;;;;;;22.61;55.31;101421.16;5141646;27;20126;-38
2022/08/02 07:07:02;;;;;;;0.10;0.10;;;;;;;22.62;55.40;101424.75;5137495;27;20041;-39
2022/08/02 07:09:27;;;;;;;0.10;0.10;;;;;;;22.63;55.41;101437.53;5141801;27;20493;-40
2022/08/02 07:11:54;;;;;;;0.10;0.10;;;;;;;22.62;55.32;101436.69;5138930;27;20066;-39
2022/08/02 07:14:20;;;;;;;0.10;0.10;;;;;;;22.63;55.41;101434.75;5139611;27;20121;-40
2022/08/02 07:16:45;;;;;;;0.10;0.10;;;;;;;22.62;55.47;101428.34;5136628;27;20396;-37
2022/08/02 07:19:11;;;;;;;0.10;0.10;;;;;;;22.61;55.39;101423.09;5142603;27;20164;-39
2022/08/02 07:21:37;;;;;;;0.10;0.10;;;;;;;22.62;55.35;101427.53;5137057;27;20042;-39
2022/08/02 07:24:22;;;;;;;0.10;0.10;;;;;;;22.63;55.32;101426.44;5122450;27;20462;-39
2022/08/02 07:26:48;;;;;;;0.10;0.10;;;;;;;22.63;55.42;101427.25;5137918;27;20043;-40
2022/08/02 07:29:34;;;;;;;0.10;0.10;;;;;;;22.63;55.34;101432.00;5122194;27;20040;-37
2022/08/02 07:32:14;;;;;;;0.10;0.10;;;;;;;22.63;55.31;101426.44;5140283;27;20141;-39
2022/08/02 07:34:40;;;;;;;0.10;0.10;;;;;;;22.62;55.45;101422.81;5139622;27;20050;-37
2022/08/02 07:37:08;;;;;;;0.10;0.10;;;;;;;22.62;55.31;101425.59;5130895;27;20043;-38
2022/08/02 07:39:45;;;;;;;0.10;0.10;;;;;;;22.62;55.30;101433.91;5106104;27;20295;-40
2022/08/02 07:42:13;;;;;;;;;;;;;;;22.63;55.26;101427.25;5131754;27;20047;-39
2022/08/02 07:44:40;;;;;;;0.10;0.10;;;;;;;22.61;55.31;101418.38;5127639;27;19919;-39
2022/08/02 07:47:05;;;;;;;0.10;0.10;;;;;;;22.62;55.20;101421.97;5121623;27;20047;-39
2022/08/02 07:49:31;;;;;;;0.10;0.10;;;;;;;22.62;55.39;101411.69;5121165;27;20043;-39
2022/08/02 07:51:57;;;;;;;0.10;0.10;;;;;;;22.62;55.42;101408.91;5125837;27;20394;-41
2022/08/02 07:54:22;;;;;;;0.10;0.10;;;;;;;22.62;55.33;101413.66;5107048;27;20069;-40
2022/08/02 07:56:48;;;;;;;0.10;0.10;;;;;;;22.62;55.64;101417.25;5125319;27;20039;-40
2022/08/02 07:59:22;;;;;;;0.10;0.10;;;;;;;22.62;55.24;101420.03;5121529;27;20116;-39
2022/08/02 08:01:48;;;;;;;0.10;0.10;;;;;;;22.62;55.43;101410.88;5127669;27;20447;-41
2022/08/02 08:04:15;;;;;;;0.10;0.10;;;;;;;22.63;55.29;101412.56;5126503;27;20051;-39
2022/08/02 08:06:40;;;;;;;0.10;0.10;;;;;;;22.62;55.29;101408.91;5121086;27;20507;-37
2022/08/02 08:09:06;;;;;;;0.10;0.10;;;;;;;22.62;55.23;101413.66;5087220;27;20047;-38
2022/08/02 08:11:32;;;;;;;0.10;0.10;;;;;;;22.62;55.48;101411.69;5124114;27;20092;-39
2022/08/02 08:13:57;;;;;;;0.10;0.10;;;;;;;22.62;55.50;101414.47;5120456;27;20394;-36
2022/08/02 08:16:25;;;;;;;0.10;0.10;;;;;;;22.61;55.54;101404.50;5119695;27;20039;-39
2022/08/02 08:18:51;;;;;;;0.10;0.10;;;;;;;22.72;55.36;101406.06;5121756;27;20526;-39
2022/08/02 08:21:17;;;;;;;0.10;0.10;;;;;;;22.71;55.57;101406.34;5124366;27;20089;-38
2022/08/02 08:23:42;;;;;;;0.10;0.10;;;;;;;22.69;55.52;101400.25;5089964;27;20036;-37
2022/08/02 08:26:08;;;;;;;0.10;0.10;;;;;;;22.68;55.37;101405.00;5122573;27;20055;-39
2022/08/02 08:28:39;;;;;;;0.10;0.10;;;;;;;22.72;55.50;101408.00;5124771;27;20119;-39
2022/08/02 08:31:05;;;;;;;0.10;0.10;;;;;;;22.70;55.24;101402.75;5122353;27;20447;-39
2022/08/02 08:33:30;;;;;;;0.10;0.10;;;;;;;22.67;55.30;101403.34;5119553;27;20134;-39
2022/08/02 08:35:56;;;;;;;0.10;0.10;;;;;;;22.67;55.63;101399.75;5123801;27;20054;-40
2022/08/02 08:38:22;;;;;;;0.10;0.10;;;;;;;22.67;55.49;101399.75;5123244;27;20058;-38
2022/08/02 08:40:49;;;;;;;0.10;0.10;;;;;;;22.66;55.50;101398.88;5120554;27;20047;-39
2022/08/02 08:43:14;;;;;;;0.10;0.10;;;;;;;22.68;55.44;101398.63;5105986;27;20541;-37
2022/08/02 08:45:44;;;;;;;0.10;0.10;;;;;;;22.67;55.47;101396.97;5124123;27;20062;-38
2022/08/02 08:48:21;;;;;;;0.10;0.10;;;;;;;22.67;55.38;101396.97;5127677;27;20043;-39
2022/08/02 08:51:00;;;;;;;0.10;0.10;;;;;;;22.68;55.67;101404.16;5124417;27;20051;-39
2022/08/02 08:53:29;;;;;;;0.10;0.10;;;;;;;22.68;55.70;101396.66;5088831;27;20074;-40
2022/08/02 08:56:02;;;;;;;0.10;0.10;;;;;;;22.68;55.54;101398.63;5107899;27;20504;-39
2022/08/02 08:58:28;;;;;;;0.10;0.10;;;;;;;22.68;55.41;101395.84;5110363;27;20039;-39
2022/08/02 09:00:53;;;;;;;0.10;0.10;;;;;;;22.67;55.67;101389.47;5136443;27;20051;-39
2022/08/02 09:03:19;;;;;;;0.10;0.10;;;;;;;22.68;55.34;101390.28;5129457;27;20043;-38
2022/08/02 09:05:45;;;;;;;0.10;0.10;;;;;;;22.69;55.44;101387.22;5122698;27;20127;-41
2022/08/02 09:08:12;;;;;;;0.10;0.10;;;;;;;22.69;55.51;101381.66;5105190;27;20078;-37
2022/08/02 09:10:44;;;;;;;0.10;0.10;;;;;;;22.69;55.57;101378.88;5123378;27;20047;-37
2022/08/02 09:13:16;;;;;;;0.10;0.10;;;;;;;22.70;55.71;101380.53;5105047;27;20051;-37
2022/08/02 09:16:04;;;;;;;0.10;0.10;;;;;;;22.70;55.56;101372.19;5095008;27;20069;-40
2022/08/02 09:18:43;;;;;;;0.10;0.10;;;;;;;22.71;55.79;101373.03;5113650;27;20498;-39
2022/08/02 09:21:09;;;;;;;0.10;0.10;;;;;;;22.71;55.76;101371.09;5105440;27;20417;-39
2022/08/02 09:23:40;;;;;;;0.10;0.10;;;;;;;22.71;55.52;101371.09;5100760;27;20474;-38
2022/08/02 09:26:08;;;;;;;0.10;0.10;;;;;;;22.72;55.65;101378.31;5104198;27;20079;-41
2022/08/02 09:28:38;;;;;;;0.10;0.10;;;;;;;22.72;55.58;101383.03;5126118;27;20468;-39
2022/08/02 09:31:08;;;;;;;0.10;0.10;;;;;;;22.72;55.54;101377.47;5133070;27;20138;-39
2022/08/02 09:33:35;;;;;;;0.10;0.10;;;;;;;22.72;55.80;101383.03;5105533;27;20071;-40
2022/08/02 09:36:07;;;;;;;0.10;0.10;;;;;;;22.72;55.76;101377.47;5083427;27;20177;-41
2022/08/02 09:38:35;;;;;;;0.10;0.10;;;;;;;22.72;55.67;101374.69;5105209;27;20501;-41
2022/08/02 09:41:02;;;;;;;0.10;0.10;;;;;;;22.72;55.67;101371.91;5128183;27;20141;-42
2022/08/02 09:43:43;;;;;;;0.10;0.10;;;;;;;22.73;55.75;101368.03;5125485;27;20066;-39
2022/08/02 09:46:31;;;;;;;0.10;0.10;;;;;;;22.73;55.71;101368.03;5111174;27;20062;-42
2022/08/02 09:48:58;;;;;;;0.10;0.10;;;;;;;22.73;55.69;101368.84;5120503;27;20074;-40
2022/08/02 09:51:27;;;;;;;0.10;0.10;;;;;;;22.73;55.67;101362.47;5123900;27;20054;-41
2022/08/02 09:53:56;;;;;;;0.10;0.10;;;;;;;22.72;55.45;101358.88;5123283;27;20480;-41
2022/08/02 09:56:44;;;;;;;0.20;0.20;;;;;;;22.73;55.63;101363.28;5106585;27;20530;-41
2022/08/02 09:59:10;;;;;;;0.10;0.10;;;;;;;22.75;55.79;101368.53;5129583;27;20515;-39
2022/08/02 10:01:36;;;;;;;0.10;0.10;;;;;;;22.74;55.54;101362.16;5118038;27;20086;-40
2022/08/02 10:04:06;;;;;;;0.10;0.10;;;;;;;22.74;55.31;101362.16;5126108;27;20040;-40
2022/08/02 10:06:32;;;;;;;0.10;0.10;;;;;;;22.73;55.39;101359.69;5126370;27;20082;-40
2022/08/02 10:08:58;;;;;;;0.10;0.10;;;;;;;22.75;55.71;101362.97;5103688;27;20100;-39
2022/08/02 10:11:26;;;;;;;0.10;0.10;;;;;;;22.81;55.54;101358.22;5118676;27;20389;-39
2022/08/02 10:13:52;;;;;;;;;;;;;;;22.81;55.56;101352.66;5121723;27;20130;-41
2022/08/02 10:16:22;;;;;;;0.10;0.10;;;;;;;22.77;55.50;101353.25;5121632;27;19926;-42
2022/08/02 10:18:50;;;;;;;0.03;0.03;;;;;;;22.76;55.49;101353.56;5116398;27;20497;-41
2022/08/02 10:21:29;;;;;;;0.10;0.10;;;;;;;22.77;55.78;101353.25;5098803;27;20130;-40
2022/08/02 10:24:16;;;;;;;0.10;0.10;;;;;;;22.77;55.87;101346.88;5119244;27;20078;-41
2022/08/02 10:26:43;;;;;;;0.10;0.10;;;;;;;22.77;55.70;101350.47;5105999;27;20122;-41
2022/08/02 10:29:10;;;;;;;0.10;0.10;;;;;;;22.77;55.66;101342.13;5102662;27;20126;-41
2022/08/02 10:31:40;;;;;;;0.10;0.10;;;;;;;22.76;55.66;101334.94;5092829;27;20130;-41
2022/08/02 10:34:09;;;;;;;0.10;0.10;;;;;;;22.76;55.75;101334.13;5099689;27;20081;-42
2022/08/02 10:36:36;;;;;;;0.10;0.10;;;;;;;22.76;55.65;101343.28;5101063;27;20079;-41
2022/08/02 10:39:03;;;;;;;0.10;0.10;;;;;;;22.76;55.62;101339.66;5120612;27;20082;-42
2022/08/02 10:41:49;;;;;;;0.10;0.10;;;;;;;22.77;55.61;101330.22;5105015;27;20378;-41
2022/08/02 10:44:25;;;;;;;0.10;0.10;;;;;;;22.81;55.16;101334.06;5105958;27;20548;-42
2022/08/02 10:46:51;;;;;;;0.10;0.10;;;;;;;22.83;55.38;101337.34;5084586;27;20099;-41
2022/08/02 10:49:19;;;;;;;0.10;0.10;;;;;;;22.84;55.42;101336.25;5101036;28;20150;-41
2022/08/02 10:52:06;;;;;;;0.10;0.10;;;;;;;22.82;55.54;101335.69;5113858;27;20091;-40
2022/08/02 10:54:38;;;;;;;0.10;0.10;;;;;;;22.82;55.44;101332.09;5128727;27;20074;-40
2022/08/02 10:57:14;;;;;;;0.10;0.10;;;;;;;22.81;55.42;101324.91;5128195;27;20081;-42
2022/08/02 10:59:40;;;;;;;0.10;0.10;;;;;;;22.81;55.55;101336.84;5100989;27;20062;-41
2022/08/02 11:02:06;;;;;;;0.10;0.10;;;;;;;22.81;55.37;101328.50;5100851;28;20142;-40
2022/08/02 11:07:34;;;;;;;0.10;0.10;;;;;;;22.82;55.39;101321.81;5164468;27;20213;-40
2022/08/02 11:10:29;;;;;;;0.10;0.10;;;;;;;22.82;55.37;101323.78;5146313;27;20070;-39
2022/08/02 11:13:02;;;;;;;0.10;0.10;;;;;;;22.82;55.37;101327.38;5134584;27;20077;-40
2022/08/02 11:15:28;;;;;;;0.10;0.10;;;;;;;22.82;55.19;101323.78;5126218;27;20553;-40
2022/08/02 11:17:55;;;;;;;0.10;0.10;;;;;;;22.83;55.42;101322.63;5127275;27;20478;-37
2022/08/02 11:20:23;;;;;;;0.10;0.10;;;;;;;22.82;55.20;101330.16;5128751;27;20325;-38
2022/08/02 11:22:51;;;;;;;0.10;0.10;;;;;;;22.82;55.21;101323.78;5128194;27;20416;-37
2022/08/02 11:28:08;;;;;;;0.10;0.10;;;;;;;22.85;55.18;101325.97;5156178;27;20136;-36
2022/08/02 11:30:34;;;;;;;0.10;0.10;;;;;;;22.84;55.39;101327.91;5156605;27;20137;-39
2022/08/02 11:33:00;;;;;;;0.10;0.10;;;;;;;22.83;55.40;101315.13;5137290;27;20129;-40
2022/08/02 11:35:34;;;;;;;0.20;0.20;;;;;;;22.83;55.15;101329.00;5167933;27;20365;-37
2022/08/02 11:38:20;;;;;;;0.10;0.10;;;;;;;22.84;55.21;101322.38;5133972;27;20453;-41
2022/08/02 11:40:47;;;;;;;0.10;0.10;;;;;;;22.85;55.14;101314.84;5142078;27;20449;-40
2022/08/02 11:43:22;;;;;;;0.10;0.10;;;;;;;22.85;55.04;101312.06;5145756;27;20122;-40
2022/08/02 11:45:49;;;;;;;0.10;0.10;;;;;;;22.86;55.20;101310.94;5110203;27;20504;-40